sensor_id;sensor_type;location;lat;lon;timestamp;temperature;humidity
33831;DHT22;20137;48.834;8.732;2022-09-03T00:02:23;16.60;99.90
33831;DHT22;20137;48.834;8.732;2022-09-03T00:05:39;16.60;99.90
33831;DHT22;20137;48.834;8.732;2022-09-03T00:11:00;16.60;99.90
33831;DHT22;20137;48.834;8.732;2022-09-03T00:13:43;16.70;99.90
33831;DHT22;20137;48.834;8.732;2022-09-03T00:16:13;16.70;99.90
33831;DHT22;20137;48.834;8.732;2022-09-03T00:18:57;16.70;99.90
33831;DHT22;20137;48.834;8.732;2022-09-03T00:21:37;16.70;99.90
33831;DHT22;20137;48.834;8.732;2022-09-03T00:24:05;16.70;99.90
33831;DHT22;20137;48.834;8.732;2022-09-03T00:26:33;16.70;99.90
33831;DHT22;20137;48.834;8.732;2022-09-03T00:29:43;16.70;99.90
33831;DHT22;20137;48.834;8.732;2022-09-03T00:32:14;16.70;99.90
33831;DHT22;20137;48.834;8.732;2022-09-03T00:34:45;16.70;99.90
33831;DHT22;20137;48.834;8.732;2022-09-03T00:37:13;16.70;99.90
33831;DHT22;20137;48.834;8.732;2022-09-03T00:39:39;16.80;99.90
33831;DHT22;20137;48.834;8.732;2022-09-03T00:50:22;16.80;99.90
33831;DHT22;20137;48.834;8.732;2022-09-03T00:55:25;16.80;99.90
33831;DHT22;20137;48.834;8.732;2022-09-03T01:01:30;16.70;99.90
33831;DHT22;20137;48.834;8.732;2022-09-03T01:12:54;16.70;99.90
33831;DHT22;20137;48.834;8.732;2022-09-03T01:15:50;16.60;99.90
33831;DHT22;20137;48.834;8.732;2022-09-03T01:18:20;16.50;99.90
33831;DHT22;20137;48.834;8.732;2022-09-03T01:29:33;16.40;99.90
33831;DHT22;20137;48.834;8.732;2022-09-03T01:35:07;16.30;99.90
33831;DHT22;20137;48.834;8.732;2022-09-03T01:41:09;16.20;99.90
33831;DHT22;20137;48.834;8.732;2022-09-03T01:44:46;16.20;99.90
33831;DHT22;20137;48.834;8.732;2022-09-03T01:47:48;16.10;99.90
33831;DHT22;20137;48.834;8.732;2022-09-03T01:50:47;16.10;99.90
33831;DHT22;20137;48.834;8.732;2022-09-03T02:01:32;15.80;99.90
33831;DHT22;20137;48.834;8.732;2022-09-03T02:04:01;15.70;99.90
33831;DHT22;20137;48.834;8.732;2022-09-03T02:06:28;15.60;99.90
33831;DHT22;20137;48.834;8.732;2022-09-03T02:08:57;15.60;99.90
33831;DHT22;20137;48.834;8.732;2022-09-03T02:11:22;15.60;99.90
33831;DHT22;20137;48.834;8.732;2022-09-03T02:13:52;15.60;99.90
33831;DHT22;20137;48.834;8.732;2022-09-03T02:16:21;15.60;99.90
33831;DHT22;20137;48.834;8.732;2022-09-03T02:19:15;15.60;99.90
33831;DHT22;20137;48.834;8.732;2022-09-03T02:21:51;15.50;99.90
33831;DHT22;20137;48.834;8.732;2022-09-03T02:24:17;15.50;99.90
33831;DHT22;20137;48.834;8.732;2022-09-03T02:26:43;15.50;99.90
33831;DHT22;20137;48.834;8.732;2022-09-03T02:29:12;15.50;99.90
33831;DHT22;20137;48.834;8.732;2022-09-03T02:31:38;15.40;99.90
33831;DHT22;20137;48.834;8.732;2022-09-03T02:34:04;15.40;99.90
33831;DHT22;20137;48.834;8.732;2022-09-03T02:36:38;15.40;99.90
33831;DHT22;20137;48.834;8.732;2022-09-03T02:39:06;15.40;99.90
33831;DHT22;20137;48.834;8.732;2022-09-03T02:41:32;15.40;99.90
33831;DHT22;20137;48.834;8.732;2022-09-03T02:44:02;15.40;99.90
33831;DHT22;20137;48.834;8.732;2022-09-03T02:46:47;15.40;99.90
33831;DHT22;20137;48.834;8.732;2022-09-03T02:49:13;15.40;99.90
33831;DHT22;20137;48.834;8.732;2022-09-03T02:51:42;15.40;99.90
33831;DHT22;20137;48.834;8.732;2022-09-03T02:54:08;15.40;99.90
33831;DHT22;20137;48.834;8.732;2022-09-03T02:56:35;15.40;99.90
33831;DHT22;20137;48.834;8.732;2022-09-03T02:59:05;15.40;99.90
33831;DHT22;20137;48.834;8.732;2022-09-03T03:01:32;15.40;99.90
33831;DHT22;20137;48.834;8.732;2022-09-03T03:03:58;15.40;99.90
33831;DHT22;20137;48.834;8.732;2022-09-03T03:06:24;15.50;99.90
33831;DHT22;20137;48.834;8.732;2022-09-03T03:08:50;15.50;99.90
33831;DHT22;20137;48.834;8.732;2022-09-03T03:11:17;15.50;99.90
33831;DHT22;20137;48.834;8.732;2022-09-03T03:13:45;15.50;99.90
33831;DHT22;20137;48.834;8.732;2022-09-03T03:16:12;15.60;99.90
33831;DHT22;20137;48.834;8.732;2022-09-03T03:18:38;15.60;99.90
33831;DHT22;20137;48.834;8.732;2022-09-03T03:21:09;15.60;99.90
33831;DHT22;20137;48.834;8.732;2022-09-03T03:23:35;15.60;99.90
33831;DHT22;20137;48.834;8.732;2022-09-03T03:26:04;15.60;99.90
33831;DHT22;20137;48.834;8.732;2022-09-03T03:28:30;15.60;99.90
33831;DHT22;20137;48.834;8.732;2022-09-03T03:31:14;15.60;99.90
33831;DHT22;20137;48.834;8.732;2022-09-03T03:33:40;15.60;99.90
33831;DHT22;20137;48.834;8.732;2022-09-03T03:36:14;15.60;99.90
33831;DHT22;20137;48.834;8.732;2022-09-03T03:38:41;15.50;99.90
33831;DHT22;20137;48.834;8.732;2022-09-03T03:41:08;15.50;99.90
33831;DHT22;20137;48.834;8.732;2022-09-03T03:43:34;15.50;99.90
33831;DHT22;20137;48.834;8.732;2022-09-03T03:46:00;15.50;99.90
33831;DHT22;20137;48.834;8.732;2022-09-03T03:48:26;15.50;99.90
33831;DHT22;20137;48.834;8.732;2022-09-03T03:50:52;15.50;99.90
33831;DHT22;20137;48.834;8.732;2022-09-03T03:53:18;15.50;99.90
33831;DHT22;20137;48.834;8.732;2022-09-03T03:55:56;15.50;99.90
33831;DHT22;20137;48.834;8.732;2022-09-03T03:58:22;15.50;99.90
33831;DHT22;20137;48.834;8.732;2022-09-03T04:00:51;15.50;99.90
33831;DHT22;20137;48.834;8.732;2022-09-03T04:03:17;15.40;99.90
33831;DHT22;20137;48.834;8.732;2022-09-03T04:05:53;15.50;99.90
33831;DHT22;20137;48.834;8.732;2022-09-03T04:08:19;15.50;99.90
33831;DHT22;20137;48.834;8.732;2022-09-03T04:10:45;15.50;99.90
33831;DHT22;20137;48.834;8.732;2022-09-03T04:13:11;15.50;99.90
33831;DHT22;20137;48.834;8.732;2022-09-03T04:15:37;15.60;99.90
33831;DHT22;20137;48.834;8.732;2022-09-03T04:18:03;15.60;99.90
33831;DHT22;20137;48.834;8.732;2022-09-03T04:20:29;15.60;99.90
33831;DHT22;20137;48.834;8.732;2022-09-03T04:22:59;15.60;99.90
33831;DHT22;20137;48.834;8.732;2022-09-03T04:25:25;15.60;99.90
33831;DHT22;20137;48.834;8.732;2022-09-03T04:27:51;15.60;99.90
33831;DHT22;20137;48.834;8.732;2022-09-03T04:30:17;15.60;99.90
33831;DHT22;20137;48.834;8.732;2022-09-03T04:32:43;15.60;99.90
33831;DHT22;20137;48.834;8.732;2022-09-03T04:35:19;15.70;99.90
33831;DHT22;20137;48.834;8.732;2022-09-03T04:37:45;15.70;99.90
33831;DHT22;20137;48.834;8.732;2022-09-03T04:40:11;15.70;99.90
33831;DHT22;20137;48.834;8.732;2022-09-03T04:42:37;15.70;99.90
33831;DHT22;20137;48.834;8.732;2022-09-03T04:45:03;15.70;99.90
33831;DHT22;20137;48.834;8.732;2022-09-03T04:47:28;15.60;99.90
33831;DHT22;20137;48.834;8.732;2022-09-03T04:49:54;15.60;99.90
33831;DHT22;20137;48.834;8.732;2022-09-03T04:52:20;15.50;99.90
33831;DHT22;20137;48.834;8.732;2022-09-03T04:54:46;15.50;99.90
33831;DHT22;20137;48.834;8.732;2022-09-03T04:57:11;15.50;99.90
33831;DHT22;20137;48.834;8.732;2022-09-03T04:59:38;15.40;99.90
33831;DHT22;20137;48.834;8.732;2022-09-03T05:02:06;15.40;99.90
33831;DHT22;20137;48.834;8.732;2022-09-03T05:04:32;15.50;99.90
33831;DHT22;20137;48.834;8.732;2022-09-03T05:06:58;15.50;99.90
33831;DHT22;20137;48.834;8.732;2022-09-03T05:09:24;15.60;99.90
33831;DHT22;20137;48.834;8.732;2022-09-03T05:11:49;15.70;99.90
33831;DHT22;20137;48.834;8.732;2022-09-03T05:14:15;15.70;99.90
33831;DHT22;20137;48.834;8.732;2022-09-03T05:16:41;15.70;99.90
33831;DHT22;20137;48.834;8.732;2022-09-03T05:19:07;15.80;99.90
33831;DHT22;20137;48.834;8.732;2022-09-03T05:21:33;15.70;99.90
33831;DHT22;20137;48.834;8.732;2022-09-03T05:24:01;15.70;99.90
33831;DHT22;20137;48.834;8.732;2022-09-03T05:26:29;15.80;99.90
33831;DHT22;20137;48.834;8.732;2022-09-03T05:28:58;15.80;99.90
33831;DHT22;20137;48.834;8.732;2022-09-03T05:31:26;15.90;99.90
33831;DHT22;20137;48.834;8.732;2022-09-03T05:33:55;16.00;99.90
33831;DHT22;20137;48.834;8.732;2022-09-03T05:36:23;16.10;99.90
33831;DHT22;20137;48.834;8.732;2022-09-03T05:38:50;16.20;99.90
33831;DHT22;20137;48.834;8.732;2022-09-03T05:41:19;16.40;99.90
33831;DHT22;20137;48.834;8.732;2022-09-03T05:43:50;16.60;99.90
33831;DHT22;20137;48.834;8.732;2022-09-03T05:46:24;16.70;99.90
33831;DHT22;20137;48.834;8.732;2022-09-03T05:48:59;16.80;99.90
33831;DHT22;20137;48.834;8.732;2022-09-03T05:51:25;16.80;99.90
33831;DHT22;20137;48.834;8.732;2022-09-03T05:53:51;16.80;99.90
33831;DHT22;20137;48.834;8.732;2022-09-03T05:56:21;16.80;99.90
33831;DHT22;20137;48.834;8.732;2022-09-03T05:58:52;16.70;99.90
33831;DHT22;20137;48.834;8.732;2022-09-03T06:01:26;16.70;99.90
33831;DHT22;20137;48.834;8.732;2022-09-03T06:04:07;16.60;99.90
33831;DHT22;20137;48.834;8.732;2022-09-03T06:06:34;16.70;99.90
33831;DHT22;20137;48.834;8.732;2022-09-03T06:09:09;16.70;99.90
33831;DHT22;20137;48.834;8.732;2022-09-03T06:11:36;16.80;99.90
33831;DHT22;20137;48.834;8.732;2022-09-03T06:14:04;16.70;99.90
33831;DHT22;20137;48.834;8.732;2022-09-03T06:16:32;16.70;99.90
33831;DHT22;20137;48.834;8.732;2022-09-03T06:18:59;16.70;99.90
33831;DHT22;20137;48.834;8.732;2022-09-03T06:21:24;16.70;99.90
33831;DHT22;20137;48.834;8.732;2022-09-03T06:23:51;16.70;99.90
33831;DHT22;20137;48.834;8.732;2022-09-03T06:26:18;16.70;99.90
33831;DHT22;20137;48.834;8.732;2022-09-03T06:28:45;16.60;99.90
33831;DHT22;20137;48.834;8.732;2022-09-03T06:31:14;16.70;99.90
33831;DHT22;20137;48.834;8.732;2022-09-03T06:33:41;16.70;99.90
33831;DHT22;20137;48.834;8.732;2022-09-03T06:36:11;16.70;99.90
33831;DHT22;20137;48.834;8.732;2022-09-03T06:38:40;16.70;99.90
33831;DHT22;20137;48.834;8.732;2022-09-03T06:41:09;16.70;99.90
33831;DHT22;20137;48.834;8.732;2022-09-03T06:43:37;16.70;99.90
33831;DHT22;20137;48.834;8.732;2022-09-03T06:46:11;16.90;99.90
33831;DHT22;20137;48.834;8.732;2022-09-03T06:48:38;17.00;99.90
33831;DHT22;20137;48.834;8.732;2022-09-03T06:51:07;17.10;99.90
33831;DHT22;20137;48.834;8.732;2022-09-03T06:53:35;17.20;99.90
33831;DHT22;20137;48.834;8.732;2022-09-03T06:56:10;17.30;99.90
33831;DHT22;20137;48.834;8.732;2022-09-03T06:58:46;17.40;99.90
33831;DHT22;20137;48.834;8.732;2022-09-03T07:01:16;17.50;99.90
33831;DHT22;20137;48.834;8.732;2022-09-03T07:03:45;17.40;99.90
33831;DHT22;20137;48.834;8.732;2022-09-03T07:06:14;17.40;99.90
33831;DHT22;20137;48.834;8.732;2022-09-03T07:08:41;17.40;99.90
33831;DHT22;20137;48.834;8.732;2022-09-03T07:11:13;17.50;99.90
33831;DHT22;20137;48.834;8.732;2022-09-03T07:13:45;17.50;99.90
33831;DHT22;20137;48.834;8.732;2022-09-03T07:16:13;17.50;99.90
33831;DHT22;20137;48.834;8.732;2022-09-03T07:18:40;17.50;99.90
33831;DHT22;20137;48.834;8.732;2022-09-03T07:21:09;17.50;99.90
33831;DHT22;20137;48.834;8.732;2022-09-03T07:23:38;17.70;99.90
33831;DHT22;20137;48.834;8.732;2022-09-03T07:26:13;17.90;99.90
33831;DHT22;20137;48.834;8.732;2022-09-03T07:28:41;18.20;99.90
33831;DHT22;20137;48.834;8.732;2022-09-03T07:31:11;18.20;99.90
33831;DHT22;20137;48.834;8.732;2022-09-03T07:33:38;18.30;99.90
33831;DHT22;20137;48.834;8.732;2022-09-03T07:36:08;18.50;99.90
33831;DHT22;20137;48.834;8.732;2022-09-03T07:38:35;18.60;99.90
33831;DHT22;20137;48.834;8.732;2022-09-03T07:41:03;18.80;99.90
33831;DHT22;20137;48.834;8.732;2022-09-03T07:43:33;18.90;99.90
33831;DHT22;20137;48.834;8.732;2022-09-03T07:46:00;18.90;99.90
33831;DHT22;20137;48.834;8.732;2022-09-03T07:48:26;18.70;99.90
33831;DHT22;20137;48.834;8.732;2022-09-03T07:50:52;18.50;99.90
33831;DHT22;20137;48.834;8.732;2022-09-03T07:53:24;18.50;99.90
33831;DHT22;20137;48.834;8.732;2022-09-03T07:55:49;18.80;99.90
33831;DHT22;20137;48.834;8.732;2022-09-03T07:58:16;18.90;99.90
33831;DHT22;20137;48.834;8.732;2022-09-03T08:00:42;19.00;99.90
33831;DHT22;20137;48.834;8.732;2022-09-03T08:03:08;19.20;99.90
33831;DHT22;20137;48.834;8.732;2022-09-03T08:05:36;19.30;99.90
33831;DHT22;20137;48.834;8.732;2022-09-03T08:08:03;19.30;99.90
33831;DHT22;20137;48.834;8.732;2022-09-03T08:10:30;19.40;99.90
33831;DHT22;20137;48.834;8.732;2022-09-03T08:12:58;19.40;99.90
33831;DHT22;20137;48.834;8.732;2022-09-03T08:15:25;19.50;99.90
33831;DHT22;20137;48.834;8.732;2022-09-03T08:17:51;19.30;99.90
33831;DHT22;20137;48.834;8.732;2022-09-03T08:20:18;19.00;99.90
33831;DHT22;20137;48.834;8.732;2022-09-03T08:22:44;18.70;99.90
33831;DHT22;20137;48.834;8.732;2022-09-03T08:25:10;18.50;99.90
33831;DHT22;20137;48.834;8.732;2022-09-03T08:27:36;18.40;99.90
33831;DHT22;20137;48.834;8.732;2022-09-03T08:30:01;18.40;99.90
33831;DHT22;20137;48.834;8.732;2022-09-03T08:32:28;18.70;99.90
33831;DHT22;20137;48.834;8.732;2022-09-03T08:34:55;19.10;99.90
33831;DHT22;20137;48.834;8.732;2022-09-03T08:37:21;19.30;99.90
33831;DHT22;20137;48.834;8.732;2022-09-03T08:39:53;19.30;99.90
33831;DHT22;20137;48.834;8.732;2022-09-03T08:45:02;19.30;99.90
33831;DHT22;20137;48.834;8.732;2022-09-03T08:50:10;19.20;99.90
33831;DHT22;20137;48.834;8.732;2022-09-03T08:52:47;19.40;99.90
33831;DHT22;20137;48.834;8.732;2022-09-03T08:55:34;19.20;99.90
33831;DHT22;20137;48.834;8.732;2022-09-03T08:58:27;19.30;99.90
33831;DHT22;20137;48.834;8.732;2022-09-03T09:01:24;19.40;99.90
33831;DHT22;20137;48.834;8.732;2022-09-03T09:07:13;19.90;99.90
33831;DHT22;20137;48.834;8.732;2022-09-03T09:12:40;20.70;99.90
33831;DHT22;20137;48.834;8.732;2022-09-03T09:15:10;20.70;99.90
33831;DHT22;20137;48.834;8.732;2022-09-03T09:20:52;20.30;99.90
33831;DHT22;20137;48.834;8.732;2022-09-03T09:23:34;20.20;99.90
33831;DHT22;20137;48.834;8.732;2022-09-03T09:26:07;20.30;99.90
33831;DHT22;20137;48.834;8.732;2022-09-03T09:28:36;20.40;99.90
33831;DHT22;20137;48.834;8.732;2022-09-03T09:31:05;20.30;99.90
33831;DHT22;20137;48.834;8.732;2022-09-03T09:33:33;20.20;99.90
33831;DHT22;20137;48.834;8.732;2022-09-03T09:36:10;20.40;99.90
33831;DHT22;20137;48.834;8.732;2022-09-03T09:38:38;20.20;99.90
33831;DHT22;20137;48.834;8.732;2022-09-03T09:41:18;20.00;99.90
33831;DHT22;20137;48.834;8.732;2022-09-03T09:43:47;20.20;99.90
33831;DHT22;20137;48.834;8.732;2022-09-03T09:46:31;20.50;99.90
33831;DHT22;20137;48.834;8.732;2022-09-03T09:48:58;20.60;99.90
33831;DHT22;20137;48.834;8.732;2022-09-03T09:54:13;20.80;99.90
33831;DHT22;20137;48.834;8.732;2022-09-03T09:56:41;21.00;99.90
33831;DHT22;20137;48.834;8.732;2022-09-03T09:59:10;21.00;99.90
33831;DHT22;20137;48.834;8.732;2022-09-03T10:01:41;21.00;99.90
33831;DHT22;20137;48.834;8.732;2022-09-03T10:04:10;21.00;99.90
33831;DHT22;20137;48.834;8.732;2022-09-03T10:06:36;20.90;99.90
33831;DHT22;20137;48.834;8.732;2022-09-03T10:09:23;21.00;99.90
33831;DHT22;20137;48.834;8.732;2022-09-03T10:12:19;21.00;99.90
33831;DHT22;20137;48.834;8.732;2022-09-03T10:14:56;21.20;99.90
33831;DHT22;20137;48.834;8.732;2022-09-03T10:17:31;21.50;99.90
33831;DHT22;20137;48.834;8.732;2022-09-03T10:20:14;21.90;99.90
33831;DHT22;20137;48.834;8.732;2022-09-03T10:22:55;22.20;99.90
33831;DHT22;20137;48.834;8.732;2022-09-03T10:25:24;22.60;99.90
33831;DHT22;20137;48.834;8.732;2022-09-03T10:27:51;22.70;99.90
33831;DHT22;20137;48.834;8.732;2022-09-03T10:30:19;22.70;99.90
33831;DHT22;20137;48.834;8.732;2022-09-03T10:32:55;23.00;99.90
33831;DHT22;20137;48.834;8.732;2022-09-03T10:35:42;23.30;99.90
33831;DHT22;20137;48.834;8.732;2022-09-03T10:38:32;23.60;99.90
33831;DHT22;20137;48.834;8.732;2022-09-03T10:55:05;22.80;99.90
33831;DHT22;20137;48.834;8.732;2022-09-03T10:57:47;23.00;99.90
33831;DHT22;20137;48.834;8.732;2022-09-03T11:00:14;23.40;99.90
33831;DHT22;20137;48.834;8.732;2022-09-03T11:03:04;23.50;99.90
33831;DHT22;20137;48.834;8.732;2022-09-03T11:05:59;23.70;99.90
33831;DHT22;20137;48.834;8.732;2022-09-03T11:11:39;24.10;99.90
33831;DHT22;20137;48.834;8.732;2022-09-03T11:14:08;24.00;99.90
33831;DHT22;20137;48.834;8.732;2022-09-03T11:16:50;24.30;99.90
33831;DHT22;20137;48.834;8.732;2022-09-03T11:19:19;24.30;99.90
33831;DHT22;20137;48.834;8.732;2022-09-03T11:21:47;24.00;99.90
33831;DHT22;20137;48.834;8.732;2022-09-03T11:24:21;23.80;99.90
33831;DHT22;20137;48.834;8.732;2022-09-03T11:27:23;23.70;99.90
33831;DHT22;20137;48.834;8.732;2022-09-03T11:30:23;23.80;99.90
33831;DHT22;20137;48.834;8.732;2022-09-03T11:32:57;23.70;99.90
33831;DHT22;20137;48.834;8.732;2022-09-03T11:35:38;23.60;99.90
33831;DHT22;20137;48.834;8.732;2022-09-03T11:41:09;23.30;99.90
33831;DHT22;20137;48.834;8.732;2022-09-03T11:43:37;23.20;99.90
33831;DHT22;20137;48.834;8.732;2022-09-03T11:46:25;23.00;99.90
33831;DHT22;20137;48.834;8.732;2022-09-03T11:48:53;22.90;99.90
33831;DHT22;20137;48.834;8.732;2022-09-03T11:51:30;22.90;99.90
33831;DHT22;20137;48.834;8.732;2022-09-03T11:56:39;22.80;99.90
33831;DHT22;20137;48.834;8.732;2022-09-03T12:02:02;22.50;99.90
33831;DHT22;20137;48.834;8.732;2022-09-03T12:04:44;22.40;99.90
33831;DHT22;20137;48.834;8.732;2022-09-03T12:10:32;22.00;99.90
33831;DHT22;20137;48.834;8.732;2022-09-03T12:13:06;22.10;99.90
33831;DHT22;20137;48.834;8.732;2022-09-03T12:18:34;22.20;99.90
33831;DHT22;20137;48.834;8.732;2022-09-03T12:21:04;22.20;99.90
33831;DHT22;20137;48.834;8.732;2022-09-03T12:23:41;22.30;99.90
33831;DHT22;20137;48.834;8.732;2022-09-03T12:26:20;22.40;99.90
33831;DHT22;20137;48.834;8.732;2022-09-03T12:28:54;22.50;99.90
33831;DHT22;20137;48.834;8.732;2022-09-03T12:31:31;22.50;99.90
33831;DHT22;20137;48.834;8.732;2022-09-03T12:34:01;22.60;99.90
33831;DHT22;20137;48.834;8.732;2022-09-03T12:36:41;22.70;99.90
33831;DHT22;20137;48.834;8.732;2022-09-03T12:39:13;22.60;99.90
33831;DHT22;20137;48.834;8.732;2022-09-03T12:41:59;22.60;99.90
33831;DHT22;20137;48.834;8.732;2022-09-03T12:44:39;22.60;99.90
33831;DHT22;20137;48.834;8.732;2022-09-03T12:49:45;22.40;99.90
33831;DHT22;20137;48.834;8.732;2022-09-03T12:52:24;22.20;99.90
33831;DHT22;20137;48.834;8.732;2022-09-03T12:57:46;21.70;99.90
33831;DHT22;20137;48.834;8.732;2022-09-03T13:00:15;21.60;99.90
33831;DHT22;20137;48.834;8.732;2022-09-03T13:05:40;21.80;99.90
33831;DHT22;20137;48.834;8.732;2022-09-03T13:08:14;22.10;99.90
33831;DHT22;20137;48.834;8.732;2022-09-03T13:10:41;22.30;99.90
33831;DHT22;20137;48.834;8.732;2022-09-03T13:25:02;22.70;99.90
33831;DHT22;20137;48.834;8.732;2022-09-03T13:28:06;22.80;99.90
33831;DHT22;20137;48.834;8.732;2022-09-03T13:30:42;22.80;99.90
33831;DHT22;20137;48.834;8.732;2022-09-03T13:33:39;22.50;99.90
33831;DHT22;20137;48.834;8.732;2022-09-03T13:36:18;22.20;99.90
33831;DHT22;20137;48.834;8.732;2022-09-03T13:41:50;21.60;99.90
33831;DHT22;20137;48.834;8.732;2022-09-03T13:44:45;21.30;99.90
33831;DHT22;20137;48.834;8.732;2022-09-03T13:50:49;20.60;99.90
33831;DHT22;20137;48.834;8.732;2022-09-03T13:55:55;19.80;99.90
33831;DHT22;20137;48.834;8.732;2022-09-03T13:58:33;19.50;99.90
33831;DHT22;20137;48.834;8.732;2022-09-03T14:01:17;19.20;99.90
33831;DHT22;20137;48.834;8.732;2022-09-03T14:04:00;18.50;99.90
33831;DHT22;20137;48.834;8.732;2022-09-03T14:12:18;16.90;99.90
33831;DHT22;20137;48.834;8.732;2022-09-03T14:19:54;17.90;99.90
33831;DHT22;20137;48.834;8.732;2022-09-03T14:25:14;18.70;99.90
33831;DHT22;20137;48.834;8.732;2022-09-03T14:27:40;19.20;99.90
33831;DHT22;20137;48.834;8.732;2022-09-03T14:41:31;21.10;99.90
33831;DHT22;20137;48.834;8.732;2022-09-03T14:44:14;21.50;99.90
33831;DHT22;20137;48.834;8.732;2022-09-03T14:47:06;21.70;99.90
33831;DHT22;20137;48.834;8.732;2022-09-03T14:49:58;21.60;99.90
33831;DHT22;20137;48.834;8.732;2022-09-03T14:55:22;21.30;99.90
33831;DHT22;20137;48.834;8.732;2022-09-03T15:01:10;21.30;99.90
33831;DHT22;20137;48.834;8.732;2022-09-03T15:06:41;21.30;99.90
33831;DHT22;20137;48.834;8.732;2022-09-03T15:12:00;21.60;99.90
33831;DHT22;20137;48.834;8.732;2022-09-03T15:14:38;21.70;99.90
33831;DHT22;20137;48.834;8.732;2022-09-03T15:25:18;21.30;99.90
33831;DHT22;20137;48.834;8.732;2022-09-03T15:28:04;21.10;99.90
33831;DHT22;20137;48.834;8.732;2022-09-03T15:30:40;20.80;99.90
33831;DHT22;20137;48.834;8.732;2022-09-03T15:40:59;20.40;99.90
33831;DHT22;20137;48.834;8.732;2022-09-03T15:43:31;20.40;99.90
33831;DHT22;20137;48.834;8.732;2022-09-03T15:46:02;20.40;99.90
33831;DHT22;20137;48.834;8.732;2022-09-03T15:48:49;20.30;99.90
33831;DHT22;20137;48.834;8.732;2022-09-03T15:51:35;20.30;99.90
33831;DHT22;20137;48.834;8.732;2022-09-03T15:56:57;20.10;99.90
33831;DHT22;20137;48.834;8.732;2022-09-03T16:00:05;20.10;99.90
33831;DHT22;20137;48.834;8.732;2022-09-03T16:02:41;20.20;99.90
33831;DHT22;20137;48.834;8.732;2022-09-03T16:05:15;20.00;99.90
33831;DHT22;20137;48.834;8.732;2022-09-03T16:07:58;20.10;99.90
33831;DHT22;20137;48.834;8.732;2022-09-03T16:11:00;20.20;99.90
33831;DHT22;20137;48.834;8.732;2022-09-03T16:16:07;20.30;99.90
33831;DHT22;20137;48.834;8.732;2022-09-03T16:29:30;20.60;99.90
33831;DHT22;20137;48.834;8.732;2022-09-03T16:32:37;20.60;99.90
33831;DHT22;20137;48.834;8.732;2022-09-03T16:35:14;20.50;99.90
33831;DHT22;20137;48.834;8.732;2022-09-03T16:41:14;20.40;99.90
33831;DHT22;20137;48.834;8.732;2022-09-03T16:44:00;20.50;99.90
33831;DHT22;20137;48.834;8.732;2022-09-03T16:46:39;20.50;99.90
33831;DHT22;20137;48.834;8.732;2022-09-03T16:54:47;20.80;99.90
33831;DHT22;20137;48.834;8.732;2022-09-03T16:57:22;20.80;99.90
33831;DHT22;20137;48.834;8.732;2022-09-03T17:03:00;20.70;99.90
33831;DHT22;20137;48.834;8.732;2022-09-03T17:08:07;20.70;99.90
33831;DHT22;20137;48.834;8.732;2022-09-03T17:10:48;20.70;99.90
33831;DHT22;20137;48.834;8.732;2022-09-03T17:24:40;25.30;99.90
33831;DHT22;20137;48.834;8.732;2022-09-03T17:35:38;23.90;99.90
33831;DHT22;20137;48.834;8.732;2022-09-03T17:40:47;21.30;99.90
33831;DHT22;20137;48.834;8.732;2022-09-03T17:43:48;20.50;99.90
33831;DHT22;20137;48.834;8.732;2022-09-03T17:49:22;19.30;99.90
33831;DHT22;20137;48.834;8.732;2022-09-03T18:07:29;17.60;99.90
33831;DHT22;20137;48.834;8.732;2022-09-03T18:10:39;17.60;99.90
33831;DHT22;20137;48.834;8.732;2022-09-03T18:13:11;17.50;99.90
33831;DHT22;20137;48.834;8.732;2022-09-03T18:15:47;17.40;99.90
33831;DHT22;20137;48.834;8.732;2022-09-03T18:18:28;17.40;99.90
33831;DHT22;20137;48.834;8.732;2022-09-03T18:21:00;17.30;99.90
33831;DHT22;20137;48.834;8.732;2022-09-03T18:26:46;17.30;99.90
33831;DHT22;20137;48.834;8.732;2022-09-03T18:29:36;17.20;99.90
33831;DHT22;20137;48.834;8.732;2022-09-03T18:32:22;17.10;99.90
33831;DHT22;20137;48.834;8.732;2022-09-03T18:35:08;17.10;99.90
33831;DHT22;20137;48.834;8.732;2022-09-03T18:37:52;17.00;99.90
33831;DHT22;20137;48.834;8.732;2022-09-03T18:41:04;16.90;99.90
33831;DHT22;20137;48.834;8.732;2022-09-03T18:47:44;16.80;99.90
33831;DHT22;20137;48.834;8.732;2022-09-03T18:54:11;16.60;99.90
33831;DHT22;20137;48.834;8.732;2022-09-03T18:57:08;16.60;99.90
33831;DHT22;20137;48.834;8.732;2022-09-03T19:03:02;16.50;99.90
33831;DHT22;20137;48.834;8.732;2022-09-03T19:12:33;16.30;99.90
33831;DHT22;20137;48.834;8.732;2022-09-03T19:15:40;16.30;99.90
33831;DHT22;20137;48.834;8.732;2022-09-03T19:18:36;16.30;99.90
33831;DHT22;20137;48.834;8.732;2022-09-03T19:22:10;16.20;99.90
33831;DHT22;20137;48.834;8.732;2022-09-03T19:24:34;16.20;99.90
33831;DHT22;20137;48.834;8.732;2022-09-03T19:27:47;16.20;99.90
33831;DHT22;20137;48.834;8.732;2022-09-03T19:30:52;16.20;99.90
33831;DHT22;20137;48.834;8.732;2022-09-03T19:33:52;16.10;99.90
33831;DHT22;20137;48.834;8.732;2022-09-03T19:54:59;15.90;99.90
33831;DHT22;20137;48.834;8.732;2022-09-03T19:57:48;15.80;99.90
33831;DHT22;20137;48.834;8.732;2022-09-03T20:00:33;15.80;99.90
33831;DHT22;20137;48.834;8.732;2022-09-03T20:03:18;15.90;99.90
33831;DHT22;20137;48.834;8.732;2022-09-03T20:06:04;15.90;99.90
33831;DHT22;20137;48.834;8.732;2022-09-03T20:08:50;15.90;99.90
33831;DHT22;20137;48.834;8.732;2022-09-03T20:11:36;15.80;99.90
33831;DHT22;20137;48.834;8.732;2022-09-03T20:14:03;15.80;99.90
33831;DHT22;20137;48.834;8.732;2022-09-03T20:22:11;15.80;99.90
33831;DHT22;20137;48.834;8.732;2022-09-03T20:30:12;15.70;99.90
33831;DHT22;20137;48.834;8.732;2022-09-03T20:40:51;15.50;99.90
33831;DHT22;20137;48.834;8.732;2022-09-03T20:52:15;15.60;99.90
33831;DHT22;20137;48.834;8.732;2022-09-03T21:00:20;15.80;99.90
33831;DHT22;20137;48.834;8.732;2022-09-03T21:08:54;16.00;99.90
33831;DHT22;20137;48.834;8.732;2022-09-03T21:11:43;16.10;99.90
33831;DHT22;20137;48.834;8.732;2022-09-03T21:14:26;16.20;99.90
33831;DHT22;20137;48.834;8.732;2022-09-03T21:17:19;16.20;99.90
33831;DHT22;20137;48.834;8.732;2022-09-03T21:20:24;16.30;99.90
33831;DHT22;20137;48.834;8.732;2022-09-03T21:26:05;16.40;99.90
33831;DHT22;20137;48.834;8.732;2022-09-03T21:28:37;16.50;99.90
33831;DHT22;20137;48.834;8.732;2022-09-03T21:31:20;16.50;99.90
33831;DHT22;20137;48.834;8.732;2022-09-03T21:33:51;16.50;99.90
33831;DHT22;20137;48.834;8.732;2022-09-03T21:36:28;16.50;99.90
33831;DHT22;20137;48.834;8.732;2022-09-03T21:41:35;16.60;99.90
33831;DHT22;20137;48.834;8.732;2022-09-03T21:44:10;16.60;99.90
33831;DHT22;20137;48.834;8.732;2022-09-03T21:46:53;16.60;99.90
33831;DHT22;20137;48.834;8.732;2022-09-03T21:49:40;16.60;99.90
33831;DHT22;20137;48.834;8.732;2022-09-03T21:52:12;16.50;99.90
33831;DHT22;20137;48.834;8.732;2022-09-03T21:54:39;16.50;99.90